createdAt,value
2023-01-10T00:00:55.849Z,50.866711
2023-01-10T00:01:56.588Z,50.866745
2023-01-10T00:02:55.966Z,50.866730
2023-01-10T00:03:55.831Z,50.866718
2023-01-10T00:04:55.877Z,50.866718
2023-01-10T00:05:55.797Z,50.866741
2023-01-10T00:06:55.824Z,50.866726
2023-01-10T00:07:55.789Z,50.866707
2023-01-10T00:08:55.775Z,50.866772
2023-01-10T00:09:55.781Z,50.866776
2023-01-10T00:10:56.593Z,50.866730
2023-01-10T00:11:55.750Z,50.866745
2023-01-10T00:12:55.748Z,50.866734
2023-01-10T00:13:55.735Z,50.866726
2023-01-10T00:14:55.769Z,50.866688
2023-01-10T00:15:55.773Z,50.866791
2023-01-10T00:16:55.707Z,50.866879
2023-01-10T00:17:55.699Z,50.866459
2023-01-10T00:18:55.702Z,50.866280
2023-01-10T00:19:55.681Z,50.866486
2023-01-10T00:20:56.600Z,50.866398
2023-01-10T00:21:55.687Z,50.866310
2023-01-10T00:22:55.660Z,50.866215
2023-01-10T00:23:55.657Z,50.866207
2023-01-10T00:24:55.655Z,50.866230
2023-01-10T00:29:49.750Z,50.866436
2023-01-10T00:30:49.789Z,50.866402
2023-01-10T00:31:49.719Z,50.866474
2023-01-10T00:32:49.713Z,50.866531
2023-01-10T00:33:49.705Z,50.866550
2023-01-10T00:34:49.708Z,50.866474
2023-01-10T00:35:49.707Z,50.866615
2023-01-10T00:36:49.705Z,50.866665
2023-01-10T00:37:49.682Z,50.866661
2023-01-10T00:38:49.669Z,50.866760
2023-01-10T00:39:50.649Z,50.866745
2023-01-10T00:40:49.647Z,50.866764
2023-01-10T00:41:49.633Z,50.866600
2023-01-10T00:42:49.622Z,50.866596
2023-01-10T00:43:49.631Z,50.866657
2023-01-10T00:44:49.612Z,50.866570
2023-01-10T00:45:49.617Z,50.866657
2023-01-10T00:46:49.592Z,50.866737
2023-01-10T00:47:49.584Z,50.866688
2023-01-10T00:48:49.582Z,50.866722
2023-01-10T00:49:49.573Z,50.866695
2023-01-10T00:50:49.559Z,50.866711
2023-01-10T00:51:49.559Z,50.866707
2023-01-10T00:52:49.563Z,50.866768
2023-01-10T00:53:49.544Z,50.866760
2023-01-10T00:54:49.525Z,50.866707
2023-01-10T00:55:49.618Z,50.866707
2023-01-10T00:56:49.521Z,50.866783
2023-01-10T00:57:49.518Z,50.866879
2023-01-10T00:58:49.558Z,50.866844
2023-01-10T00:59:49.546Z,50.866791
2023-01-10T01:00:50.131Z,50.866783
2023-01-10T01:01:49.660Z,50.866791
2023-01-10T01:02:49.653Z,50.866806
2023-01-10T01:03:50.111Z,50.866806
2023-01-10T01:04:49.461Z,50.866837
2023-01-10T01:05:49.437Z,50.866856
2023-01-10T01:06:49.437Z,50.866867
2023-01-10T01:07:49.638Z,50.866871
2023-01-10T01:08:49.419Z,50.866936
2023-01-10T01:09:49.413Z,50.866894
2023-01-10T01:10:49.411Z,50.866875
2023-01-10T01:11:49.432Z,50.866879
2023-01-10T01:12:49.391Z,50.866852
2023-01-10T01:13:49.382Z,50.866848
2023-01-10T01:14:49.371Z,50.866837
2023-01-10T01:15:49.439Z,50.866776
2023-01-10T01:16:49.365Z,50.866695
2023-01-10T01:17:49.349Z,50.866779
2023-01-10T01:18:49.331Z,50.866722
2023-01-10T01:19:49.349Z,50.866749
2023-01-10T01:20:49.314Z,50.866745
2023-01-10T01:21:49.316Z,50.866764
2023-01-10T01:22:49.311Z,50.866756
2023-01-10T01:23:49.289Z,50.866745
2023-01-10T01:24:49.285Z,50.866760
2023-01-10T01:25:49.271Z,50.866730
2023-01-10T01:26:49.268Z,50.866764
2023-01-10T01:27:49.276Z,50.866703
2023-01-10T01:28:49.244Z,50.866711
2023-01-10T01:29:50.180Z,50.866714
2023-01-10T01:30:49.327Z,50.866756
2023-01-10T01:31:49.244Z,50.866772
2023-01-10T01:32:49.264Z,50.866608
2023-01-10T01:33:49.209Z,50.866749
2023-01-10T01:34:49.200Z,50.866772
2023-01-10T01:35:49.191Z,50.866787
2023-01-10T01:36:49.184Z,50.866516
2023-01-10T01:37:49.226Z,50.866699
2023-01-10T01:38:49.177Z,50.866882
2023-01-10T01:39:50.113Z,50.866955
2023-01-10T01:40:49.164Z,50.866798
2023-01-10T01:41:49.133Z,50.866783
2023-01-10T01:42:50.137Z,50.866718
2023-01-10T01:43:49.141Z,50.866734
2023-01-10T01:44:49.130Z,50.866825
2023-01-10T01:45:49.123Z,50.866711
2023-01-10T01:46:49.625Z,50.866730
2023-01-10T01:47:49.112Z,50.866688
2023-01-10T01:48:49.101Z,50.866882
2023-01-10T01:49:49.100Z,50.866791
2023-01-10T01:50:49.087Z,50.866730
2023-01-10T01:51:49.077Z,50.866825
2023-01-10T01:52:49.067Z,50.866650
2023-01-10T01:53:49.074Z,50.866646
2023-01-10T01:54:49.048Z,50.866596
2023-01-10T01:55:49.053Z,50.866695
2023-01-10T01:56:49.037Z,50.866756
2023-01-10T01:57:49.034Z,50.866940
2023-01-10T01:58:49.021Z,50.866734
2023-01-10T01:59:49.013Z,50.866577
2023-01-10T02:00:49.001Z,50.866890
2023-01-10T02:01:49.019Z,50.866745
2023-01-10T02:03:01.839Z,50.866680
2023-01-10T02:03:51.043Z,50.866787
2023-01-10T02:04:48.983Z,50.866776
2023-01-10T02:05:48.969Z,50.866585
2023-01-10T02:06:48.962Z,50.866615
2023-01-10T02:07:48.938Z,50.866638
2023-01-10T02:08:48.942Z,50.866634
2023-01-10T02:09:48.941Z,50.866676
2023-01-10T02:10:48.959Z,50.866692
2023-01-10T02:11:49.558Z,50.866680
2023-01-10T02:12:48.921Z,50.866734
2023-01-10T02:13:48.894Z,50.866638
2023-01-10T02:14:48.899Z,50.866653
2023-01-10T02:15:48.920Z,50.866646
2023-01-10T02:16:48.867Z,50.866764
2023-01-10T02:17:48.864Z,50.866859
2023-01-10T02:18:48.854Z,50.866714
2023-01-10T02:19:48.843Z,50.866726
2023-01-10T02:20:48.835Z,50.866756
2023-01-10T02:21:48.825Z,50.866642
2023-01-10T02:22:48.828Z,50.866695
2023-01-10T02:23:48.816Z,50.866734
2023-01-10T02:24:48.818Z,50.866749
2023-01-10T02:25:48.805Z,50.866817
2023-01-10T02:26:48.781Z,50.866768
2023-01-10T02:27:48.813Z,50.866688
2023-01-10T02:28:48.787Z,50.866554
2023-01-10T02:29:48.780Z,50.866665
2023-01-10T02:30:48.769Z,50.866615
2023-01-10T02:31:48.756Z,50.866646
2023-01-10T02:32:56.954Z,50.866840
2023-01-10T02:33:50.748Z,50.867142
2023-01-10T02:34:48.735Z,50.866974
2023-01-10T02:35:48.722Z,50.866764
2023-01-10T02:36:48.712Z,50.866764
2023-01-10T02:37:48.706Z,50.866837
2023-01-10T02:38:48.711Z,50.866898
2023-01-10T02:39:48.693Z,50.867027
2023-01-10T02:40:48.687Z,50.867191
2023-01-10T02:41:48.679Z,50.867054
2023-01-10T02:42:48.667Z,50.867123
2023-01-10T02:43:48.651Z,50.867031
2023-01-10T02:44:49.662Z,50.867012
2023-01-10T02:45:48.662Z,50.866867
2023-01-10T02:46:48.708Z,50.866673
2023-01-10T02:47:48.621Z,50.866795
2023-01-10T02:48:48.616Z,50.866814
2023-01-10T02:49:48.612Z,50.866859
2023-01-10T02:50:48.606Z,50.866795
2023-01-10T02:51:48.594Z,50.866714
2023-01-10T02:52:48.579Z,50.866711
2023-01-10T02:53:48.571Z,50.866688
2023-01-10T02:54:48.569Z,50.866856
2023-01-10T02:55:48.567Z,50.866829
2023-01-10T02:56:48.576Z,50.866734
2023-01-10T02:57:48.549Z,50.866753
2023-01-10T02:58:48.603Z,50.866795
2023-01-10T02:59:48.532Z,50.866714
2023-01-10T03:00:48.529Z,50.866756
2023-01-10T03:01:48.557Z,50.866779
2023-01-10T03:02:48.505Z,50.866859
2023-01-10T03:03:48.492Z,50.866840
2023-01-10T03:04:48.556Z,50.866795
2023-01-10T03:05:48.471Z,50.866676
2023-01-10T03:06:48.488Z,50.866764
2023-01-10T03:07:48.476Z,50.866703
2023-01-10T03:08:49.079Z,50.866764
2023-01-10T03:09:48.453Z,50.866802
2023-01-10T03:10:48.442Z,50.866806
2023-01-10T03:11:48.428Z,50.866817
2023-01-10T03:12:48.452Z,50.866760
2023-01-10T03:13:48.421Z,50.866936
2023-01-10T03:14:48.402Z,50.866909
2023-01-10T03:15:48.410Z,50.866982
2023-01-10T03:16:48.395Z,50.866982
2023-01-10T03:17:48.380Z,50.866695
2023-01-10T03:18:48.373Z,50.866913
2023-01-10T03:19:48.359Z,50.866791
2023-01-10T03:20:48.357Z,50.866894
2023-01-10T03:21:48.344Z,50.867020
2023-01-10T03:22:48.362Z,50.866772
2023-01-10T03:23:48.351Z,50.866776
2023-01-10T03:24:48.339Z,50.866783
2023-01-10T03:25:49.321Z,50.866768
2023-01-10T03:26:48.307Z,50.866726
2023-01-10T03:27:48.383Z,50.866943
2023-01-10T03:28:48.294Z,50.867256
2023-01-10T03:29:48.295Z,50.867157
2023-01-10T03:30:48.284Z,50.867043
2023-01-10T03:31:48.283Z,50.867271
2023-01-10T03:32:48.282Z,50.867310
2023-01-10T03:33:48.251Z,50.867329
2023-01-10T03:34:48.272Z,50.867229
2023-01-10T03:35:48.244Z,50.867092
2023-01-10T03:36:48.230Z,50.866879
2023-01-10T03:37:48.227Z,50.866749
2023-01-10T03:38:48.215Z,50.866726
2023-01-10T03:39:48.208Z,50.866734
2023-01-10T03:40:48.207Z,50.866699
2023-01-10T03:41:48.190Z,50.866737
2023-01-10T03:42:48.189Z,50.866730
2023-01-10T03:43:48.176Z,50.866718
2023-01-10T03:44:48.158Z,50.866734
2023-01-10T03:45:49.166Z,50.866741
2023-01-10T03:46:48.190Z,50.866741
2023-01-10T03:47:48.152Z,50.866814
2023-01-10T03:48:48.215Z,50.866798
2023-01-10T03:49:48.145Z,50.866783
2023-01-10T03:50:48.121Z,50.866749
2023-01-10T03:51:48.108Z,50.866714
2023-01-10T03:52:48.102Z,50.866680
2023-01-10T03:53:48.100Z,50.866711
2023-01-10T03:54:48.097Z,50.866726
2023-01-10T03:55:48.084Z,50.866703
2023-01-10T03:56:48.080Z,50.866699
2023-01-10T03:57:48.059Z,50.866745
2023-01-10T03:58:48.057Z,50.866745
2023-01-10T03:59:48.042Z,50.866802
2023-01-10T04:00:48.071Z,50.866718
2023-01-10T04:01:48.198Z,50.866676
2023-01-10T04:02:48.029Z,50.866726
2023-01-10T04:03:48.070Z,50.866676
2023-01-10T04:04:48.651Z,50.866646
2023-01-10T04:05:47.998Z,50.866768
2023-01-10T04:06:47.992Z,50.866718
2023-01-10T04:07:47.992Z,50.866741
2023-01-10T04:08:47.989Z,50.866756
2023-01-10T04:09:47.961Z,50.866741
2023-01-10T04:10:47.955Z,50.866768
2023-01-10T04:11:47.945Z,50.866817
2023-01-10T04:12:47.947Z,50.866779
2023-01-10T04:13:47.939Z,50.866726
2023-01-10T04:14:47.955Z,50.866680
2023-01-10T04:15:47.915Z,50.866867
2023-01-10T04:16:47.911Z,50.866753
2023-01-10T04:17:47.923Z,50.866795
2023-01-10T04:18:47.891Z,50.866844
2023-01-10T04:19:47.885Z,50.866940
2023-01-10T04:20:47.883Z,50.866791
2023-01-10T04:21:47.873Z,50.866726
2023-01-10T04:22:47.868Z,50.866802
2023-01-10T04:23:47.861Z,50.866833
2023-01-10T04:24:47.850Z,50.866867
2023-01-10T04:25:47.851Z,50.866768
2023-01-10T04:26:47.853Z,50.866768
2023-01-10T04:27:47.843Z,50.866882
2023-01-10T04:28:47.816Z,50.866764
2023-01-10T04:29:47.799Z,50.866890
2023-01-10T04:30:47.796Z,50.866837
2023-01-10T04:31:47.865Z,50.866802
2023-01-10T04:32:47.779Z,50.866817
2023-01-10T04:33:47.771Z,50.866776
2023-01-10T04:34:47.760Z,50.866867
2023-01-10T04:35:47.763Z,50.866863
2023-01-10T04:36:49.920Z,50.866848
2023-01-10T04:37:47.736Z,50.866825
2023-01-10T04:38:48.654Z,50.866817
2023-01-10T04:39:47.725Z,50.866806
2023-01-10T04:40:47.718Z,50.866840
2023-01-10T04:41:47.727Z,50.866783
2023-01-10T04:42:47.740Z,50.866795
2023-01-10T04:43:47.697Z,50.866833
2023-01-10T04:44:47.695Z,50.866821
2023-01-10T04:45:47.703Z,50.866848
2023-01-10T04:46:48.582Z,50.866817
2023-01-10T04:47:47.661Z,50.866817
2023-01-10T04:48:47.655Z,50.866798
2023-01-10T04:49:47.640Z,50.866798
2023-01-10T04:50:47.635Z,50.866791
2023-01-10T04:51:47.629Z,50.866787
2023-01-10T04:52:47.625Z,50.866802
2023-01-10T04:53:47.615Z,50.866779
2023-01-10T04:54:47.609Z,50.866795
2023-01-10T04:55:47.604Z,50.866821
2023-01-10T04:56:47.587Z,50.866825
2023-01-10T04:57:47.585Z,50.866825
2023-01-10T04:58:47.572Z,50.866844
2023-01-10T04:59:47.561Z,50.866829
2023-01-10T05:00:47.551Z,50.866814
2023-01-10T05:01:47.674Z,50.866829
2023-01-10T05:02:47.625Z,50.866810
2023-01-10T05:03:47.529Z,50.866783
2023-01-10T05:04:47.511Z,50.866791
2023-01-10T05:05:47.516Z,50.866760
2023-01-10T05:06:47.498Z,50.866779
2023-01-10T05:07:47.521Z,50.866783
2023-01-10T05:08:47.490Z,50.866810
2023-01-10T05:09:47.481Z,50.866772
2023-01-10T05:10:47.477Z,50.866798
2023-01-10T05:11:47.465Z,50.866737
2023-01-10T05:12:47.469Z,50.866760
2023-01-10T05:13:48.207Z,50.866741
2023-01-10T05:14:48.436Z,50.866764
2023-01-10T05:15:47.434Z,50.866768
2023-01-10T05:16:47.457Z,50.866764
2023-01-10T05:17:48.167Z,50.866768
2023-01-10T05:18:47.410Z,50.866745
2023-01-10T05:19:47.408Z,50.866760
2023-01-10T05:20:47.397Z,50.866753
2023-01-10T05:21:47.385Z,50.866764
2023-01-10T05:22:47.376Z,50.866791
2023-01-10T05:23:47.362Z,50.866802
2023-01-10T05:24:47.369Z,50.866772
2023-01-10T05:25:47.340Z,50.866772
2023-01-10T05:26:47.338Z,50.866745
2023-01-10T05:27:47.327Z,50.866749
2023-01-10T05:28:47.325Z,50.866764
2023-01-10T05:29:47.318Z,50.866745
2023-01-10T05:30:47.363Z,50.866776
2023-01-10T05:31:47.323Z,50.866783
2023-01-10T05:32:47.294Z,50.866749
2023-01-10T05:33:47.277Z,50.866734
2023-01-10T05:34:47.270Z,50.866753
2023-01-10T05:35:47.261Z,50.866718
2023-01-10T05:36:47.259Z,50.866753
2023-01-10T05:37:47.253Z,50.866791
2023-01-10T05:38:47.255Z,50.866798
2023-01-10T05:39:47.219Z,50.866821
2023-01-10T05:40:48.226Z,50.866810
2023-01-10T05:41:47.217Z,50.866821
2023-01-10T05:42:47.213Z,50.866760
2023-01-10T05:43:47.205Z,50.866764
2023-01-10T05:44:47.212Z,50.866760
2023-01-10T05:45:47.196Z,50.866760
2023-01-10T05:46:47.173Z,50.866795
2023-01-10T05:47:48.164Z,50.866764
2023-01-10T05:48:47.173Z,50.866776
2023-01-10T05:49:47.162Z,50.866756
2023-01-10T05:50:47.145Z,50.866772
2023-01-10T05:51:47.141Z,50.866760
2023-01-10T05:52:47.126Z,50.866730
2023-01-10T05:53:48.065Z,50.866730
2023-01-10T05:54:48.164Z,50.866817
2023-01-10T05:55:47.662Z,50.866768
2023-01-10T05:56:47.101Z,50.866730
2023-01-10T05:57:47.093Z,50.866756
2023-01-10T05:58:47.385Z,50.866753
2023-01-10T05:59:48.085Z,50.866718
2023-01-10T06:00:47.066Z,50.866734
2023-01-10T06:01:47.075Z,50.866722
2023-01-10T06:02:47.158Z,50.866783
2023-01-10T06:03:47.043Z,50.866764
2023-01-10T06:04:47.067Z,50.866749
2023-01-10T06:05:48.806Z,50.866688
2023-01-10T06:06:48.020Z,50.866657
2023-01-10T06:07:47.030Z,50.866669
2023-01-10T06:08:47.004Z,50.866653
2023-01-10T06:09:47.000Z,50.866653
2023-01-10T06:10:47.004Z,50.866676
2023-01-10T06:11:46.981Z,50.866749
2023-01-10T06:12:46.980Z,50.866673
2023-01-10T06:13:47.672Z,50.866653
2023-01-10T06:14:46.964Z,50.866638
2023-01-10T06:15:47.712Z,50.866631
2023-01-10T06:16:46.944Z,50.866665
2023-01-10T06:17:46.932Z,50.866680
2023-01-10T06:18:46.921Z,50.866810
2023-01-10T06:19:46.913Z,50.866959
2023-01-10T06:20:46.907Z,50.867001
2023-01-10T06:21:46.903Z,50.866959
2023-01-10T06:22:46.896Z,50.866970
2023-01-10T06:23:46.879Z,50.866936
2023-01-10T06:24:46.897Z,50.866817
2023-01-10T06:25:46.887Z,50.866646
2023-01-10T06:26:46.867Z,50.866611
2023-01-10T06:27:46.836Z,50.866924
2023-01-10T06:28:47.845Z,50.867275
2023-01-10T06:29:46.832Z,50.867294
2023-01-10T06:30:46.877Z,50.867363
2023-01-10T06:31:48.687Z,50.867264
2023-01-10T06:32:46.830Z,50.867352
2023-01-10T06:33:47.675Z,50.867390
2023-01-10T06:34:46.821Z,50.867317
2023-01-10T06:35:46.825Z,50.867199
2023-01-10T06:36:46.778Z,50.867233
2023-01-10T06:37:46.777Z,50.867172
2023-01-10T06:38:47.601Z,50.867390
2023-01-10T06:39:46.753Z,50.867123
2023-01-10T06:40:46.750Z,50.867077
2023-01-10T06:41:46.736Z,50.867016
2023-01-10T06:42:46.741Z,50.866989
2023-01-10T06:43:46.782Z,50.866901
2023-01-10T06:44:46.718Z,50.866905
2023-01-10T06:45:46.791Z,50.866886
2023-01-10T06:46:46.702Z,50.866920
2023-01-10T06:47:46.699Z,50.866905
2023-01-10T06:48:46.686Z,50.866871
2023-01-10T06:49:46.676Z,50.866859
2023-01-10T06:50:46.684Z,50.866928
2023-01-10T06:51:46.667Z,50.866932
2023-01-10T06:52:48.601Z,50.866966
2023-01-10T06:53:46.654Z,50.866913
2023-01-10T06:54:46.644Z,50.866871
2023-01-10T06:55:46.644Z,50.866817
2023-01-10T06:56:46.627Z,50.866924
2023-01-10T06:57:46.613Z,50.866844
2023-01-10T06:58:49.599Z,50.866848
2023-01-10T06:59:46.622Z,50.866879
2023-01-10T07:00:46.677Z,50.866879
2023-01-10T07:01:46.777Z,50.866852
2023-01-10T07:02:46.573Z,50.866898
2023-01-10T07:03:47.224Z,50.866867
2023-01-10T07:04:46.560Z,50.866825
2023-01-10T07:05:46.566Z,50.866840
2023-01-10T07:06:46.545Z,50.866814
2023-01-10T07:07:46.530Z,50.866882
2023-01-10T07:08:46.520Z,50.866840
2023-01-10T07:09:46.513Z,50.866859
2023-01-10T07:10:47.123Z,50.866863
2023-01-10T07:11:46.517Z,50.866810
2023-01-10T07:12:46.488Z,50.866837
2023-01-10T07:13:46.484Z,50.866829
2023-01-10T07:14:46.472Z,50.866779
2023-01-10T07:15:47.114Z,50.866821
2023-01-10T07:16:46.460Z,50.866806
2023-01-10T07:17:46.469Z,50.866783
2023-01-10T07:18:46.454Z,50.866840
2023-01-10T07:19:46.493Z,50.866821
2023-01-10T07:20:46.431Z,50.866844
2023-01-10T07:21:46.427Z,50.866806
2023-01-10T07:22:46.421Z,50.866848
2023-01-10T07:23:46.414Z,50.866825
2023-01-10T07:24:46.441Z,50.866817
2023-01-10T07:25:46.397Z,50.866802
2023-01-10T07:26:46.386Z,50.866776
2023-01-10T07:27:47.104Z,50.866852
2023-01-10T07:28:46.385Z,50.866844
2023-01-10T07:29:46.403Z,50.866791
2023-01-10T07:30:46.353Z,50.866806
2023-01-10T07:31:46.358Z,50.866783
2023-01-10T07:32:46.351Z,50.866814
2023-01-10T07:33:46.343Z,50.866814
2023-01-10T07:34:46.330Z,50.866806
2023-01-10T07:35:46.312Z,50.866844
2023-01-10T07:36:46.302Z,50.866806
2023-01-10T07:37:46.295Z,50.866829
2023-01-10T07:38:46.297Z,50.866856
2023-01-10T07:39:46.283Z,50.866814
2023-01-10T07:40:46.284Z,50.866821
2023-01-10T07:41:46.276Z,50.866817
2023-01-10T07:42:46.288Z,50.866798
2023-01-10T07:43:46.243Z,50.866779
2023-01-10T07:44:48.028Z,50.866756
2023-01-10T07:45:46.247Z,50.866779
2023-01-10T07:46:46.230Z,50.866741
2023-01-10T07:47:46.241Z,50.866756
2023-01-10T07:48:46.227Z,50.866760
2023-01-10T07:49:46.211Z,50.866730
2023-01-10T07:50:46.212Z,50.866745
2023-01-10T07:51:46.205Z,50.866745
2023-01-10T07:52:46.193Z,50.866699
2023-01-10T07:53:46.186Z,50.866661
2023-01-10T07:54:46.169Z,50.866703
2023-01-10T07:55:46.173Z,50.866791
2023-01-10T07:56:46.152Z,50.866772
2023-01-10T07:57:46.137Z,50.866764
2023-01-10T07:58:46.131Z,50.866776
2023-01-10T07:59:46.147Z,50.866810
2023-01-10T08:00:46.125Z,50.866795
2023-01-10T08:01:46.113Z,50.866776
2023-01-10T08:02:46.190Z,50.866810
2023-01-10T08:03:46.115Z,50.866833
2023-01-10T08:04:46.134Z,50.866798
2023-01-10T08:05:46.091Z,50.866749
2023-01-10T08:06:46.065Z,50.866798
2023-01-10T08:07:46.057Z,50.866791
2023-01-10T08:08:46.079Z,50.866776
2023-01-10T08:09:46.061Z,50.866787
2023-01-10T08:10:46.059Z,50.866714
2023-01-10T08:11:46.033Z,50.866817
2023-01-10T08:12:46.027Z,50.866787
2023-01-10T08:13:46.014Z,50.866802
2023-01-10T08:14:46.633Z,50.866890
2023-01-10T08:15:46.058Z,50.866817
2023-01-10T08:16:45.997Z,50.866817
2023-01-10T08:17:46.001Z,50.866875
2023-01-10T08:18:45.980Z,50.866776
2023-01-10T08:19:46.615Z,50.866776
2023-01-10T08:20:45.976Z,50.866753
2023-01-10T08:21:46.704Z,50.866707
2023-01-10T08:22:45.945Z,50.866756
2023-01-10T08:23:45.954Z,50.866749
2023-01-10T08:24:45.938Z,50.866833
2023-01-10T08:25:45.925Z,50.866764
2023-01-10T08:26:46.628Z,50.866734
2023-01-10T08:27:45.910Z,50.866760
2023-01-10T08:28:45.893Z,50.866764
2023-01-10T08:29:45.911Z,50.866764
2023-01-10T08:30:45.885Z,50.866745
2023-01-10T08:31:45.878Z,50.866779
2023-01-10T08:32:45.868Z,50.866779
2023-01-10T08:33:45.871Z,50.866737
2023-01-10T08:34:45.852Z,50.866772
2023-01-10T08:35:45.859Z,50.866802
2023-01-10T08:36:46.623Z,50.866768
2023-01-10T08:37:46.648Z,50.866806
2023-01-10T08:38:45.848Z,50.866840
2023-01-10T08:39:45.815Z,50.866856
2023-01-10T08:40:45.791Z,50.866814
2023-01-10T08:41:45.785Z,50.866802
2023-01-10T08:42:45.785Z,50.866745
2023-01-10T08:43:45.790Z,50.866741
2023-01-10T08:44:45.752Z,50.866787
2023-01-10T08:45:45.749Z,50.866802
2023-01-10T08:46:45.878Z,50.866768
2023-01-10T08:47:45.731Z,50.866779
2023-01-10T08:48:45.755Z,50.866783
2023-01-10T08:49:45.754Z,50.866764
2023-01-10T08:50:45.713Z,50.866776
2023-01-10T08:51:45.704Z,50.866745
2023-01-10T08:52:45.788Z,50.866779
2023-01-10T08:53:45.711Z,50.866787
2023-01-10T08:54:45.686Z,50.867245
2023-01-10T08:55:45.673Z,50.867138
2023-01-10T08:56:45.673Z,50.866978
2023-01-10T08:57:45.693Z,50.866997
2023-01-10T08:58:45.659Z,50.867027
2023-01-10T08:59:45.639Z,50.867096
2023-01-10T09:00:45.636Z,50.866985
2023-01-10T09:01:45.760Z,50.866932
2023-01-10T09:02:46.220Z,50.866879
2023-01-10T09:03:45.605Z,50.866947
2023-01-10T09:04:45.620Z,50.866940
2023-01-10T09:05:45.588Z,50.866947
2023-01-10T09:06:46.606Z,50.866920
2023-01-10T09:07:45.586Z,50.866989
2023-01-10T09:08:45.568Z,50.866936
2023-01-10T09:09:45.554Z,50.867001
2023-01-10T09:10:45.562Z,50.866913
2023-01-10T09:11:45.563Z,50.866924
2023-01-10T09:12:45.536Z,50.867012
2023-01-10T09:13:45.524Z,50.866993
2023-01-10T09:14:45.512Z,50.866989
2023-01-10T09:15:45.559Z,50.866978
2023-01-10T09:16:45.570Z,50.866749
2023-01-10T09:17:45.494Z,50.866882
2023-01-10T09:18:45.482Z,50.866875
2023-01-10T09:19:45.473Z,50.866985
2023-01-10T09:20:45.471Z,50.867069
2023-01-10T09:21:45.458Z,50.867039
2023-01-10T09:22:45.442Z,50.866989
2023-01-10T09:23:45.448Z,50.867172
2023-01-10T09:24:46.144Z,50.867191
2023-01-10T09:25:45.435Z,50.867107
2023-01-10T09:26:45.418Z,50.867081
2023-01-10T09:27:45.415Z,50.867012
2023-01-10T09:28:48.032Z,50.867004
2023-01-10T09:29:45.420Z,50.867012
2023-01-10T09:30:45.416Z,50.867020
2023-01-10T09:31:46.194Z,50.867016
2023-01-10T09:32:45.367Z,50.866947
2023-01-10T09:33:47.415Z,50.866898
2023-01-10T09:34:46.364Z,50.866833
2023-01-10T09:35:45.368Z,50.866947
2023-01-10T09:36:45.342Z,50.867191
2023-01-10T09:37:45.328Z,50.867237
2023-01-10T09:38:45.346Z,50.867077
2023-01-10T09:39:45.315Z,50.866817
2023-01-10T09:40:45.302Z,50.866772
2023-01-10T09:41:45.293Z,50.866745
2023-01-10T09:42:45.293Z,50.866737
2023-01-10T09:43:45.295Z,50.866783
2023-01-10T09:44:45.265Z,50.866737
2023-01-10T09:45:45.282Z,50.866753
2023-01-10T09:46:45.363Z,50.866718
2023-01-10T09:47:45.247Z,50.866753
2023-01-10T09:48:45.248Z,50.866653
2023-01-10T09:49:47.149Z,50.866673
2023-01-10T09:50:45.242Z,50.866661
2023-01-10T09:51:45.216Z,50.866711
2023-01-10T09:52:45.197Z,50.866776
2023-01-10T09:53:45.186Z,50.866825
2023-01-10T09:54:46.200Z,50.866848
2023-01-10T09:55:45.712Z,50.866776
2023-01-10T09:56:45.172Z,50.866760
2023-01-10T09:57:45.159Z,50.866772
2023-01-10T09:58:45.154Z,50.866722
2023-01-10T09:59:45.149Z,50.866772
2023-01-10T10:00:45.153Z,50.866806
2023-01-10T10:01:45.134Z,50.866825
2023-01-10T10:02:45.127Z,50.866783
2023-01-10T10:03:45.250Z,50.866760
2023-01-10T10:04:45.117Z,50.866875
2023-01-10T10:05:45.096Z,50.866817
2023-01-10T10:06:45.087Z,50.866848
2023-01-10T10:07:45.078Z,50.866848
2023-01-10T10:08:45.070Z,50.866848
2023-01-10T10:09:45.093Z,50.866760
2023-01-10T10:10:45.068Z,50.866791
2023-01-10T10:11:45.050Z,50.866741
2023-01-10T10:12:45.087Z,50.866695
2023-01-10T10:13:45.037Z,50.866726
2023-01-10T10:14:45.026Z,50.866764
2023-01-10T10:15:45.019Z,50.866741
2023-01-10T10:16:45.021Z,50.866772
2023-01-10T10:17:45.006Z,50.866779
2023-01-10T10:18:46.598Z,50.866768
2023-01-10T10:19:44.992Z,50.866756
2023-01-10T10:20:44.984Z,50.866795
2023-01-10T10:21:44.971Z,50.866707
2023-01-10T10:22:44.974Z,50.866703
2023-01-10T10:23:45.718Z,50.866722
2023-01-10T10:24:44.948Z,50.866711
2023-01-10T10:25:45.953Z,50.866753
2023-01-10T10:26:45.332Z,50.866871
2023-01-10T10:27:45.069Z,50.866856
2023-01-10T10:28:53.807Z,50.866875
2023-01-10T10:29:47.735Z,50.866791
2023-01-10T10:30:45.899Z,50.866734
2023-01-10T10:31:45.031Z,50.866791
2023-01-10T10:32:44.891Z,50.866852
2023-01-10T10:33:44.883Z,50.866764
2023-01-10T10:34:44.871Z,50.866753
2023-01-10T10:35:44.863Z,50.866726
2023-01-10T10:36:45.725Z,50.866745
2023-01-10T10:37:45.638Z,50.866703
2023-01-10T10:38:44.836Z,50.866707
2023-01-10T10:39:44.832Z,50.866692
2023-01-10T10:40:44.854Z,50.866684
2023-01-10T10:41:44.842Z,50.866657
2023-01-10T10:42:44.801Z,50.866692
2023-01-10T10:43:44.794Z,50.866798
2023-01-10T10:44:44.791Z,50.866848
2023-01-10T10:45:44.835Z,50.866779
2023-01-10T10:46:44.779Z,50.866798
2023-01-10T11:07:56.474Z,50.866776
2023-01-10T11:08:56.473Z,50.866764
2023-01-10T11:09:56.457Z,50.866749
2023-01-10T11:10:56.973Z,50.866753
2023-01-10T11:11:57.400Z,50.866749
2023-01-10T11:12:56.429Z,50.866753
2023-01-10T11:13:56.452Z,50.866749
2023-01-10T11:14:57.967Z,50.866753
2023-01-10T11:15:56.465Z,50.866745
2023-01-10T11:16:56.396Z,50.866734
2023-01-10T11:17:56.384Z,50.866737
2023-01-10T11:18:56.380Z,50.866737
2023-01-10T11:19:56.407Z,50.866745
2023-01-10T11:20:58.040Z,50.866749
2023-01-10T11:21:56.381Z,50.866741
2023-01-10T11:22:56.370Z,50.866756
2023-01-10T11:23:57.983Z,50.866760
2023-01-10T11:24:56.394Z,50.866791
2023-01-10T11:25:56.985Z,50.866753
2023-01-10T11:26:58.005Z,50.866745
2023-01-10T11:28:29.420Z,50.866776
2023-01-10T11:28:56.299Z,50.866749
2023-01-10T11:29:56.283Z,50.866741
2023-01-10T11:30:56.282Z,50.866718
2023-01-10T11:31:56.390Z,50.866749
2023-01-10T11:32:56.264Z,50.866760
2023-01-10T11:33:56.275Z,50.866791
2023-01-10T11:34:57.270Z,50.866787
2023-01-10T11:35:56.262Z,50.866695
2023-01-10T11:36:56.265Z,50.866692
2023-01-10T11:37:57.910Z,50.866703
2023-01-10T11:38:56.215Z,50.866669
2023-01-10T11:39:56.221Z,50.866650
2023-01-10T11:40:56.188Z,50.866661
2023-01-10T11:41:56.188Z,50.866673
2023-01-10T11:42:58.302Z,50.866673
2023-01-10T11:43:57.206Z,50.866684
2023-01-10T11:44:56.160Z,50.866722
2023-01-10T11:45:56.202Z,50.866703
2023-01-10T11:46:57.995Z,50.866703
2023-01-10T11:47:56.940Z,50.866699
2023-01-10T11:49:05.402Z,50.866692